sensor_id;sensor_type;location;lat;lon;timestamp;P1;durP1;ratioP1;P2;durP2;ratioP2
37455;SDS011;23316;50.718;7.328;2022-12-11T00:00:06;64.97;;;31.92;;
37455;SDS011;23316;50.718;7.328;2022-12-11T00:02:36;65.82;;;30.40;;
37455;SDS011;23316;50.718;7.328;2022-12-11T00:05:03;63.55;;;30.67;;
37455;SDS011;23316;50.718;7.328;2022-12-11T00:07:31;58.15;;;29.90;;
37455;SDS011;23316;50.718;7.328;2022-12-11T00:09:59;67.97;;;31.27;;
37455;SDS011;23316;50.718;7.328;2022-12-11T00:12:28;59.45;;;29.90;;
37455;SDS011;23316;50.718;7.328;2022-12-11T00:14:55;62.97;;;29.67;;
37455;SDS011;23316;50.718;7.328;2022-12-11T00:17:23;61.95;;;31.85;;
37455;SDS011;23316;50.718;7.328;2022-12-11T00:19:50;62.88;;;30.05;;
37455;SDS011;23316;50.718;7.328;2022-12-11T00:22:17;65.80;;;31.17;;
37455;SDS011;23316;50.718;7.328;2022-12-11T00:24:44;58.75;;;29.70;;
37455;SDS011;23316;50.718;7.328;2022-12-11T00:27:13;63.30;;;30.02;;
37455;SDS011;23316;50.718;7.328;2022-12-11T00:29:40;61.95;;;30.25;;
37455;SDS011;23316;50.718;7.328;2022-12-11T00:32:07;59.83;;;29.75;;
37455;SDS011;23316;50.718;7.328;2022-12-11T00:34:35;60.67;;;30.58;;
37455;SDS011;23316;50.718;7.328;2022-12-11T00:37:02;60.17;;;29.52;;
37455;SDS011;23316;50.718;7.328;2022-12-11T00:39:29;58.15;;;28.88;;
37455;SDS011;23316;50.718;7.328;2022-12-11T00:41:57;65.53;;;30.52;;
37455;SDS011;23316;50.718;7.328;2022-12-11T00:44:25;71.47;;;33.33;;
37455;SDS011;23316;50.718;7.328;2022-12-11T00:46:52;69.22;;;32.03;;
37455;SDS011;23316;50.718;7.328;2022-12-11T00:49:20;68.28;;;32.30;;
37455;SDS011;23316;50.718;7.328;2022-12-11T00:51:47;57.65;;;30.30;;
37455;SDS011;23316;50.718;7.328;2022-12-11T00:54:14;72.13;;;33.60;;
37455;SDS011;23316;50.718;7.328;2022-12-11T00:56:41;68.78;;;32.40;;
37455;SDS011;23316;50.718;7.328;2022-12-11T00:59:09;63.75;;;32.75;;
37455;SDS011;23316;50.718;7.328;2022-12-11T01:01:37;61.83;;;29.98;;
37455;SDS011;23316;50.718;7.328;2022-12-11T01:04:05;65.82;;;31.67;;
37455;SDS011;23316;50.718;7.328;2022-12-11T01:06:32;61.65;;;31.00;;
37455;SDS011;23316;50.718;7.328;2022-12-11T01:08:59;65.30;;;32.72;;
37455;SDS011;23316;50.718;7.328;2022-12-11T01:11:44;66.82;;;32.45;;
37455;SDS011;23316;50.718;7.328;2022-12-11T01:14:11;65.65;;;32.03;;
37455;SDS011;23316;50.718;7.328;2022-12-11T01:16:40;66.30;;;31.58;;
37455;SDS011;23316;50.718;7.328;2022-12-11T01:19:07;73.28;;;33.58;;
37455;SDS011;23316;50.718;7.328;2022-12-11T01:21:34;65.53;;;33.17;;
37455;SDS011;23316;50.718;7.328;2022-12-11T01:24:02;75.10;;;34.42;;
37455;SDS011;23316;50.718;7.328;2022-12-11T01:26:29;67.63;;;34.38;;
37455;SDS011;23316;50.718;7.328;2022-12-11T01:28:57;68.47;;;34.47;;
37455;SDS011;23316;50.718;7.328;2022-12-11T01:31:24;61.40;;;30.17;;
37455;SDS011;23316;50.718;7.328;2022-12-11T01:33:53;63.90;;;31.90;;
37455;SDS011;23316;50.718;7.328;2022-12-11T01:36:22;65.40;;;33.30;;
37455;SDS011;23316;50.718;7.328;2022-12-11T01:38:49;71.65;;;34.70;;
37455;SDS011;23316;50.718;7.328;2022-12-11T01:41:19;64.35;;;32.25;;
37455;SDS011;23316;50.718;7.328;2022-12-11T01:43:56;58.80;;;29.52;;
37455;SDS011;23316;50.718;7.328;2022-12-11T01:46:25;58.15;;;29.30;;
37455;SDS011;23316;50.718;7.328;2022-12-11T01:48:55;63.72;;;31.10;;
37455;SDS011;23316;50.718;7.328;2022-12-11T01:51:24;64.72;;;32.03;;
37455;SDS011;23316;50.718;7.328;2022-12-11T01:53:53;60.60;;;29.50;;
37455;SDS011;23316;50.718;7.328;2022-12-11T01:56:24;67.00;;;31.58;;
37455;SDS011;23316;50.718;7.328;2022-12-11T01:58:53;70.15;;;30.73;;
37455;SDS011;23316;50.718;7.328;2022-12-11T02:01:26;66.25;;;31.63;;
37455;SDS011;23316;50.718;7.328;2022-12-11T02:04:00;70.20;;;33.10;;
37455;SDS011;23316;50.718;7.328;2022-12-11T02:06:31;60.28;;;29.75;;
37455;SDS011;23316;50.718;7.328;2022-12-11T02:09:00;66.78;;;32.38;;
37455;SDS011;23316;50.718;7.328;2022-12-11T02:11:31;63.83;;;31.33;;
37455;SDS011;23316;50.718;7.328;2022-12-11T02:14:07;72.72;;;34.25;;
37455;SDS011;23316;50.718;7.328;2022-12-11T02:16:44;85.47;;;37.55;;
37455;SDS011;23316;50.718;7.328;2022-12-11T02:19:20;75.25;;;35.58;;
37455;SDS011;23316;50.718;7.328;2022-12-11T02:22:02;80.47;;;33.40;;
37455;SDS011;23316;50.718;7.328;2022-12-11T02:24:38;82.68;;;36.72;;
37455;SDS011;23316;50.718;7.328;2022-12-11T02:27:26;78.18;;;35.47;;
37455;SDS011;23316;50.718;7.328;2022-12-11T02:30:00;90.82;;;38.30;;
37455;SDS011;23316;50.718;7.328;2022-12-11T02:32:32;83.78;;;36.05;;
37455;SDS011;23316;50.718;7.328;2022-12-11T02:35:06;74.30;;;33.42;;
37455;SDS011;23316;50.718;7.328;2022-12-11T02:40:08;68.68;;;32.20;;
37455;SDS011;23316;50.718;7.328;2022-12-11T02:42:39;86.18;;;35.97;;
37455;SDS011;23316;50.718;7.328;2022-12-11T02:45:10;77.72;;;34.20;;
37455;SDS011;23316;50.718;7.328;2022-12-11T02:47:39;76.28;;;33.00;;
37455;SDS011;23316;50.718;7.328;2022-12-11T02:50:10;75.03;;;34.80;;
37455;SDS011;23316;50.718;7.328;2022-12-11T02:52:40;83.65;;;36.65;;
37455;SDS011;23316;50.718;7.328;2022-12-11T02:55:09;75.93;;;34.70;;
37455;SDS011;23316;50.718;7.328;2022-12-11T02:57:41;73.47;;;32.50;;
37455;SDS011;23316;50.718;7.328;2022-12-11T03:00:14;79.45;;;34.78;;
37455;SDS011;23316;50.718;7.328;2022-12-11T03:02:43;66.88;;;32.88;;
37455;SDS011;23316;50.718;7.328;2022-12-11T03:05:11;80.63;;;36.95;;
37455;SDS011;23316;50.718;7.328;2022-12-11T03:07:41;84.80;;;37.17;;
37455;SDS011;23316;50.718;7.328;2022-12-11T03:10:12;84.95;;;37.75;;
37455;SDS011;23316;50.718;7.328;2022-12-11T03:12:41;82.93;;;35.53;;
37455;SDS011;23316;50.718;7.328;2022-12-11T03:15:12;76.30;;;34.90;;
37455;SDS011;23316;50.718;7.328;2022-12-11T03:17:44;73.85;;;33.92;;
37455;SDS011;23316;50.718;7.328;2022-12-11T03:20:23;73.45;;;35.22;;
37455;SDS011;23316;50.718;7.328;2022-12-11T03:22:56;68.78;;;32.83;;
37455;SDS011;23316;50.718;7.328;2022-12-11T03:25:33;67.05;;;32.40;;
37455;SDS011;23316;50.718;7.328;2022-12-11T03:28:09;68.75;;;31.05;;
37455;SDS011;23316;50.718;7.328;2022-12-11T03:30:40;79.53;;;36.13;;
37455;SDS011;23316;50.718;7.328;2022-12-11T03:33:10;72.93;;;34.03;;
37455;SDS011;23316;50.718;7.328;2022-12-11T03:35:41;90.07;;;37.47;;
37455;SDS011;23316;50.718;7.328;2022-12-11T03:38:12;84.85;;;36.40;;
37455;SDS011;23316;50.718;7.328;2022-12-11T03:40:44;82.20;;;36.60;;
37455;SDS011;23316;50.718;7.328;2022-12-11T03:43:14;93.65;;;38.47;;
37455;SDS011;23316;50.718;7.328;2022-12-11T03:45:43;88.88;;;38.67;;
37455;SDS011;23316;50.718;7.328;2022-12-11T03:48:15;91.55;;;40.20;;
37455;SDS011;23316;50.718;7.328;2022-12-11T03:50:43;101.15;;;40.67;;
37455;SDS011;23316;50.718;7.328;2022-12-11T03:53:12;100.80;;;40.40;;
37455;SDS011;23316;50.718;7.328;2022-12-11T03:55:40;93.65;;;39.30;;
37455;SDS011;23316;50.718;7.328;2022-12-11T03:58:08;103.40;;;40.38;;
37455;SDS011;23316;50.718;7.328;2022-12-11T04:00:36;102.25;;;41.20;;
37455;SDS011;23316;50.718;7.328;2022-12-11T04:03:05;86.80;;;36.15;;
37455;SDS011;23316;50.718;7.328;2022-12-11T04:05:38;83.43;;;34.88;;
37455;SDS011;23316;50.718;7.328;2022-12-11T04:08:06;78.55;;;34.63;;
37455;SDS011;23316;50.718;7.328;2022-12-11T04:10:33;86.97;;;35.40;;
37455;SDS011;23316;50.718;7.328;2022-12-11T04:13:00;88.25;;;36.60;;
37455;SDS011;23316;50.718;7.328;2022-12-11T04:15:27;83.38;;;36.78;;
37455;SDS011;23316;50.718;7.328;2022-12-11T04:17:54;84.50;;;36.15;;
37455;SDS011;23316;50.718;7.328;2022-12-11T04:20:40;75.93;;;34.15;;
37455;SDS011;23316;50.718;7.328;2022-12-11T04:23:25;84.13;;;36.47;;
37455;SDS011;23316;50.718;7.328;2022-12-11T04:26:10;83.53;;;35.95;;
37455;SDS011;23316;50.718;7.328;2022-12-11T04:28:39;80.00;;;34.08;;
37455;SDS011;23316;50.718;7.328;2022-12-11T04:31:10;78.93;;;33.60;;
37455;SDS011;23316;50.718;7.328;2022-12-11T04:33:38;86.03;;;34.97;;
37455;SDS011;23316;50.718;7.328;2022-12-11T04:36:07;78.97;;;35.38;;
37455;SDS011;23316;50.718;7.328;2022-12-11T04:38:35;88.57;;;37.55;;
37455;SDS011;23316;50.718;7.328;2022-12-11T04:41:04;76.80;;;35.22;;
37455;SDS011;23316;50.718;7.328;2022-12-11T04:43:33;87.20;;;36.53;;
37455;SDS011;23316;50.718;7.328;2022-12-11T04:46:01;82.82;;;33.85;;
37455;SDS011;23316;50.718;7.328;2022-12-11T04:48:29;78.45;;;32.33;;
37455;SDS011;23316;50.718;7.328;2022-12-11T04:50:57;75.53;;;32.85;;
37455;SDS011;23316;50.718;7.328;2022-12-11T04:53:26;84.35;;;35.00;;
37455;SDS011;23316;50.718;7.328;2022-12-11T04:55:54;79.22;;;33.60;;
37455;SDS011;23316;50.718;7.328;2022-12-11T04:58:21;96.75;;;37.67;;
37455;SDS011;23316;50.718;7.328;2022-12-11T05:00:49;68.95;;;32.30;;
37455;SDS011;23316;50.718;7.328;2022-12-11T05:03:16;85.85;;;36.85;;
37455;SDS011;23316;50.718;7.328;2022-12-11T05:05:46;90.35;;;37.00;;
37455;SDS011;23316;50.718;7.328;2022-12-11T05:08:15;76.63;;;33.85;;
37455;SDS011;23316;50.718;7.328;2022-12-11T05:10:43;74.43;;;31.95;;
37455;SDS011;23316;50.718;7.328;2022-12-11T05:13:11;77.68;;;33.88;;
37455;SDS011;23316;50.718;7.328;2022-12-11T05:15:38;78.05;;;32.78;;
37455;SDS011;23316;50.718;7.328;2022-12-11T05:18:06;80.95;;;33.20;;
37455;SDS011;23316;50.718;7.328;2022-12-11T05:20:33;76.55;;;32.30;;
37455;SDS011;23316;50.718;7.328;2022-12-11T05:23:00;76.38;;;31.17;;
37455;SDS011;23316;50.718;7.328;2022-12-11T05:25:27;135.48;;;58.33;;
37455;SDS011;23316;50.718;7.328;2022-12-11T05:27:56;215.95;;;78.68;;
37455;SDS011;23316;50.718;7.328;2022-12-11T05:30:23;128.10;;;49.55;;
37455;SDS011;23316;50.718;7.328;2022-12-11T05:32:51;92.03;;;38.75;;
37455;SDS011;23316;50.718;7.328;2022-12-11T05:35:18;74.32;;;33.15;;
37455;SDS011;23316;50.718;7.328;2022-12-11T05:37:45;75.65;;;32.20;;
37455;SDS011;23316;50.718;7.328;2022-12-11T05:40:12;72.90;;;30.90;;
37455;SDS011;23316;50.718;7.328;2022-12-11T05:42:40;76.97;;;33.33;;
37455;SDS011;23316;50.718;7.328;2022-12-11T05:45:09;81.13;;;33.45;;
37455;SDS011;23316;50.718;7.328;2022-12-11T05:47:36;88.13;;;35.75;;
37455;SDS011;23316;50.718;7.328;2022-12-11T05:50:04;83.57;;;34.47;;
37455;SDS011;23316;50.718;7.328;2022-12-11T05:52:32;95.97;;;36.17;;
37455;SDS011;23316;50.718;7.328;2022-12-11T05:54:59;89.47;;;35.35;;
37455;SDS011;23316;50.718;7.328;2022-12-11T05:57:26;110.63;;;38.72;;
37455;SDS011;23316;50.718;7.328;2022-12-11T05:59:53;92.88;;;35.85;;
37455;SDS011;23316;50.718;7.328;2022-12-11T06:02:22;116.47;;;41.10;;
37455;SDS011;23316;50.718;7.328;2022-12-11T06:04:49;90.60;;;35.17;;
37455;SDS011;23316;50.718;7.328;2022-12-11T06:07:16;85.95;;;34.88;;
37455;SDS011;23316;50.718;7.328;2022-12-11T06:09:44;80.55;;;32.90;;
37455;SDS011;23316;50.718;7.328;2022-12-11T06:12:12;89.63;;;32.97;;
37455;SDS011;23316;50.718;7.328;2022-12-11T06:14:39;93.90;;;37.47;;
37455;SDS011;23316;50.718;7.328;2022-12-11T06:17:06;98.28;;;37.00;;
37455;SDS011;23316;50.718;7.328;2022-12-11T06:19:35;89.25;;;33.83;;
37455;SDS011;23316;50.718;7.328;2022-12-11T06:22:02;74.40;;;28.80;;
37455;SDS011;23316;50.718;7.328;2022-12-11T06:24:30;74.57;;;28.98;;
37455;SDS011;23316;50.718;7.328;2022-12-11T06:26:57;89.00;;;31.98;;
37455;SDS011;23316;50.718;7.328;2022-12-11T06:29:24;67.30;;;28.17;;
37455;SDS011;23316;50.718;7.328;2022-12-11T06:31:51;73.47;;;27.83;;
37455;SDS011;23316;50.718;7.328;2022-12-11T06:34:19;64.78;;;27.20;;
37455;SDS011;23316;50.718;7.328;2022-12-11T06:36:47;62.58;;;26.73;;
37455;SDS011;23316;50.718;7.328;2022-12-11T06:39:14;63.72;;;25.83;;
37455;SDS011;23316;50.718;7.328;2022-12-11T06:41:42;68.03;;;26.98;;
37455;SDS011;23316;50.718;7.328;2022-12-11T06:44:09;67.78;;;27.17;;
37455;SDS011;23316;50.718;7.328;2022-12-11T06:46:36;67.22;;;25.92;;
37455;SDS011;23316;50.718;7.328;2022-12-11T06:49:03;62.40;;;27.10;;
37455;SDS011;23316;50.718;7.328;2022-12-11T06:51:31;71.68;;;28.30;;
37455;SDS011;23316;50.718;7.328;2022-12-11T06:53:59;63.55;;;25.45;;
37455;SDS011;23316;50.718;7.328;2022-12-11T06:56:26;62.38;;;25.88;;
37455;SDS011;23316;50.718;7.328;2022-12-11T06:58:54;59.90;;;25.38;;
37455;SDS011;23316;50.718;7.328;2022-12-11T07:01:22;63.53;;;26.30;;
37455;SDS011;23316;50.718;7.328;2022-12-11T07:03:51;64.18;;;25.23;;
37455;SDS011;23316;50.718;7.328;2022-12-11T07:06:19;65.07;;;26.58;;
37455;SDS011;23316;50.718;7.328;2022-12-11T07:08:46;59.20;;;25.33;;
37455;SDS011;23316;50.718;7.328;2022-12-11T07:11:16;64.85;;;27.45;;
37455;SDS011;23316;50.718;7.328;2022-12-11T07:13:44;61.28;;;25.42;;
37455;SDS011;23316;50.718;7.328;2022-12-11T07:16:13;57.95;;;24.83;;
37455;SDS011;23316;50.718;7.328;2022-12-11T07:18:42;64.03;;;25.67;;
37455;SDS011;23316;50.718;7.328;2022-12-11T07:21:12;64.07;;;27.08;;
37455;SDS011;23316;50.718;7.328;2022-12-11T07:23:40;66.70;;;27.02;;
37455;SDS011;23316;50.718;7.328;2022-12-11T07:26:08;64.72;;;26.63;;
37455;SDS011;23316;50.718;7.328;2022-12-11T07:28:38;66.28;;;26.10;;
37455;SDS011;23316;50.718;7.328;2022-12-11T07:31:06;60.67;;;25.35;;
37455;SDS011;23316;50.718;7.328;2022-12-11T07:33:34;64.97;;;25.95;;
37455;SDS011;23316;50.718;7.328;2022-12-11T07:36:02;60.80;;;25.33;;
37455;SDS011;23316;50.718;7.328;2022-12-11T07:38:30;61.58;;;25.77;;
37455;SDS011;23316;50.718;7.328;2022-12-11T07:40:59;60.78;;;25.02;;
37455;SDS011;23316;50.718;7.328;2022-12-11T07:43:26;62.65;;;25.17;;
37455;SDS011;23316;50.718;7.328;2022-12-11T07:45:59;62.05;;;26.15;;
37455;SDS011;23316;50.718;7.328;2022-12-11T07:48:27;62.20;;;26.20;;
37455;SDS011;23316;50.718;7.328;2022-12-11T07:50:54;56.55;;;25.38;;
37455;SDS011;23316;50.718;7.328;2022-12-11T07:53:21;66.00;;;26.00;;
37455;SDS011;23316;50.718;7.328;2022-12-11T07:55:48;61.38;;;25.05;;
37455;SDS011;23316;50.718;7.328;2022-12-11T07:58:16;65.22;;;27.23;;
37455;SDS011;23316;50.718;7.328;2022-12-11T08:00:43;59.70;;;26.42;;
37455;SDS011;23316;50.718;7.328;2022-12-11T08:03:11;66.18;;;26.20;;
37455;SDS011;23316;50.718;7.328;2022-12-11T08:05:39;63.97;;;27.38;;
37455;SDS011;23316;50.718;7.328;2022-12-11T08:08:06;63.58;;;27.92;;
37455;SDS011;23316;50.718;7.328;2022-12-11T08:10:33;69.43;;;27.88;;
37455;SDS011;23316;50.718;7.328;2022-12-11T08:13:00;67.85;;;28.20;;
37455;SDS011;23316;50.718;7.328;2022-12-11T08:15:27;67.80;;;28.85;;
37455;SDS011;23316;50.718;7.328;2022-12-11T08:17:55;80.95;;;32.38;;
37455;SDS011;23316;50.718;7.328;2022-12-11T08:20:23;72.40;;;30.08;;
37455;SDS011;23316;50.718;7.328;2022-12-11T08:22:50;68.22;;;28.90;;
37455;SDS011;23316;50.718;7.328;2022-12-11T08:25:18;70.70;;;29.42;;
37455;SDS011;23316;50.718;7.328;2022-12-11T08:27:45;69.18;;;28.65;;
37455;SDS011;23316;50.718;7.328;2022-12-11T08:30:12;68.72;;;28.10;;
37455;SDS011;23316;50.718;7.328;2022-12-11T08:32:40;69.95;;;28.52;;
37455;SDS011;23316;50.718;7.328;2022-12-11T08:35:07;76.22;;;29.33;;
37455;SDS011;23316;50.718;7.328;2022-12-11T08:37:36;72.28;;;30.75;;
37455;SDS011;23316;50.718;7.328;2022-12-11T08:40:05;166.65;;;60.10;;
37455;SDS011;23316;50.718;7.328;2022-12-11T08:42:33;99.47;;;40.10;;
37455;SDS011;23316;50.718;7.328;2022-12-11T08:45:00;88.68;;;34.35;;
37455;SDS011;23316;50.718;7.328;2022-12-11T08:47:27;72.50;;;31.20;;
37455;SDS011;23316;50.718;7.328;2022-12-11T08:49:55;79.57;;;31.52;;
37455;SDS011;23316;50.718;7.328;2022-12-11T08:52:22;72.10;;;30.08;;
37455;SDS011;23316;50.718;7.328;2022-12-11T08:54:51;78.32;;;32.95;;
37455;SDS011;23316;50.718;7.328;2022-12-11T08:57:18;78.13;;;31.30;;
37455;SDS011;23316;50.718;7.328;2022-12-11T08:59:45;65.97;;;28.27;;
37455;SDS011;23316;50.718;7.328;2022-12-11T09:02:12;67.82;;;27.50;;
37455;SDS011;23316;50.718;7.328;2022-12-11T09:04:40;70.35;;;29.38;;
37455;SDS011;23316;50.718;7.328;2022-12-11T09:07:07;64.13;;;28.35;;
37455;SDS011;23316;50.718;7.328;2022-12-11T09:09:34;65.68;;;28.67;;
37455;SDS011;23316;50.718;7.328;2022-12-11T09:12:03;65.95;;;28.50;;
37455;SDS011;23316;50.718;7.328;2022-12-11T09:14:32;68.65;;;28.38;;
37455;SDS011;23316;50.718;7.328;2022-12-11T09:16:59;66.15;;;28.95;;
37455;SDS011;23316;50.718;7.328;2022-12-11T09:19:27;65.20;;;28.83;;
37455;SDS011;23316;50.718;7.328;2022-12-11T09:21:54;60.17;;;26.67;;
37455;SDS011;23316;50.718;7.328;2022-12-11T09:24:21;58.90;;;26.35;;
37455;SDS011;23316;50.718;7.328;2022-12-11T09:26:48;52.55;;;23.92;;
37455;SDS011;23316;50.718;7.328;2022-12-11T09:29:17;49.15;;;23.33;;
37455;SDS011;23316;50.718;7.328;2022-12-11T09:31:44;58.97;;;25.90;;
37455;SDS011;23316;50.718;7.328;2022-12-11T09:34:13;51.80;;;24.23;;
37455;SDS011;23316;50.718;7.328;2022-12-11T09:36:40;52.08;;;23.95;;
37455;SDS011;23316;50.718;7.328;2022-12-11T09:39:09;53.85;;;23.75;;
37455;SDS011;23316;50.718;7.328;2022-12-11T09:41:38;54.08;;;24.27;;
37455;SDS011;23316;50.718;7.328;2022-12-11T09:44:31;56.38;;;25.48;;
37455;SDS011;23316;50.718;7.328;2022-12-11T09:47:07;53.85;;;24.20;;
37455;SDS011;23316;50.718;7.328;2022-12-11T09:49:48;54.17;;;23.90;;
37455;SDS011;23316;50.718;7.328;2022-12-11T09:52:20;55.65;;;24.60;;
37455;SDS011;23316;50.718;7.328;2022-12-11T09:54:56;56.92;;;25.08;;
37455;SDS011;23316;50.718;7.328;2022-12-11T09:57:30;56.40;;;25.23;;
37455;SDS011;23316;50.718;7.328;2022-12-11T10:00:10;53.67;;;25.85;;
37455;SDS011;23316;50.718;7.328;2022-12-11T10:02:45;63.75;;;27.63;;
37455;SDS011;23316;50.718;7.328;2022-12-11T10:05:28;58.15;;;26.77;;
37455;SDS011;23316;50.718;7.328;2022-12-11T10:08:02;58.83;;;26.15;;
37455;SDS011;23316;50.718;7.328;2022-12-11T10:10:39;56.17;;;25.85;;
37455;SDS011;23316;50.718;7.328;2022-12-11T10:13:11;53.90;;;25.15;;
37455;SDS011;23316;50.718;7.328;2022-12-11T10:15:50;56.15;;;27.17;;
37455;SDS011;23316;50.718;7.328;2022-12-11T10:18:22;59.25;;;25.38;;
37455;SDS011;23316;50.718;7.328;2022-12-11T10:20:51;53.92;;;25.95;;
37455;SDS011;23316;50.718;7.328;2022-12-11T10:23:23;58.95;;;28.10;;
37455;SDS011;23316;50.718;7.328;2022-12-11T10:25:56;57.05;;;26.52;;
37455;SDS011;23316;50.718;7.328;2022-12-11T10:28:28;67.18;;;30.48;;
37455;SDS011;23316;50.718;7.328;2022-12-11T10:30:59;60.47;;;28.35;;
37455;SDS011;23316;50.718;7.328;2022-12-11T10:33:36;57.15;;;26.23;;
37455;SDS011;23316;50.718;7.328;2022-12-11T10:36:12;58.58;;;26.25;;
37455;SDS011;23316;50.718;7.328;2022-12-11T10:38:43;62.42;;;27.73;;
37455;SDS011;23316;50.718;7.328;2022-12-11T10:41:13;59.42;;;28.08;;
37455;SDS011;23316;50.718;7.328;2022-12-11T10:43:45;55.83;;;28.02;;
37455;SDS011;23316;50.718;7.328;2022-12-11T10:46:16;57.97;;;27.20;;
37455;SDS011;23316;50.718;7.328;2022-12-11T10:48:45;60.95;;;27.77;;
37455;SDS011;23316;50.718;7.328;2022-12-11T10:51:13;54.90;;;26.42;;
37455;SDS011;23316;50.718;7.328;2022-12-11T10:53:41;53.72;;;25.63;;
37455;SDS011;23316;50.718;7.328;2022-12-11T10:56:09;51.10;;;25.23;;
37455;SDS011;23316;50.718;7.328;2022-12-11T10:58:38;56.67;;;27.23;;
37455;SDS011;23316;50.718;7.328;2022-12-11T11:01:18;66.95;;;32.47;;
37455;SDS011;23316;50.718;7.328;2022-12-11T11:03:51;60.47;;;29.23;;
37455;SDS011;23316;50.718;7.328;2022-12-11T11:06:22;59.90;;;28.77;;
37455;SDS011;23316;50.718;7.328;2022-12-11T11:08:51;58.42;;;27.48;;
37455;SDS011;23316;50.718;7.328;2022-12-11T11:11:22;59.80;;;28.50;;
37455;SDS011;23316;50.718;7.328;2022-12-11T11:13:51;59.28;;;28.40;;
37455;SDS011;23316;50.718;7.328;2022-12-11T11:16:31;58.67;;;28.40;;
37455;SDS011;23316;50.718;7.328;2022-12-11T11:19:02;98.88;;;40.40;;
37455;SDS011;23316;50.718;7.328;2022-12-11T11:21:29;261.38;;;100.63;;
37455;SDS011;23316;50.718;7.328;2022-12-11T11:23:58;128.10;;;53.85;;
37455;SDS011;23316;50.718;7.328;2022-12-11T11:26:25;76.82;;;35.72;;
37455;SDS011;23316;50.718;7.328;2022-12-11T11:28:56;67.38;;;31.42;;
37455;SDS011;23316;50.718;7.328;2022-12-11T11:31:30;62.90;;;31.52;;
37455;SDS011;23316;50.718;7.328;2022-12-11T11:34:00;61.25;;;29.20;;
37455;SDS011;23316;50.718;7.328;2022-12-11T11:36:31;60.65;;;28.80;;
37455;SDS011;23316;50.718;7.328;2022-12-11T11:39:05;59.67;;;28.65;;
37455;SDS011;23316;50.718;7.328;2022-12-11T11:41:45;99.43;;;45.55;;
37455;SDS011;23316;50.718;7.328;2022-12-11T11:44:18;102.63;;;53.13;;
37455;SDS011;23316;50.718;7.328;2022-12-11T11:46:53;66.43;;;34.53;;
37455;SDS011;23316;50.718;7.328;2022-12-11T11:49:26;58.30;;;28.17;;
37455;SDS011;23316;50.718;7.328;2022-12-11T11:52:14;55.90;;;27.48;;
37455;SDS011;23316;50.718;7.328;2022-12-11T11:54:51;58.50;;;26.42;;
37455;SDS011;23316;50.718;7.328;2022-12-11T11:57:26;48.08;;;23.52;;
37455;SDS011;23316;50.718;7.328;2022-12-11T12:00:04;46.38;;;23.05;;
37455;SDS011;23316;50.718;7.328;2022-12-11T12:02:46;48.42;;;23.38;;
37455;SDS011;23316;50.718;7.328;2022-12-11T12:05:27;49.30;;;23.63;;
37455;SDS011;23316;50.718;7.328;2022-12-11T12:08:04;55.50;;;25.27;;
37455;SDS011;23316;50.718;7.328;2022-12-11T12:10:41;48.15;;;24.63;;
37455;SDS011;23316;50.718;7.328;2022-12-11T12:13:16;47.90;;;22.75;;
37455;SDS011;23316;50.718;7.328;2022-12-11T12:15:54;45.38;;;22.65;;
37455;SDS011;23316;50.718;7.328;2022-12-11T12:18:26;47.90;;;22.75;;
37455;SDS011;23316;50.718;7.328;2022-12-11T12:21:03;42.92;;;22.45;;
37455;SDS011;23316;50.718;7.328;2022-12-11T12:23:43;41.75;;;20.20;;
37455;SDS011;23316;50.718;7.328;2022-12-11T12:26:20;36.00;;;18.23;;
37455;SDS011;23316;50.718;7.328;2022-12-11T12:31:34;36.63;;;17.85;;
37455;SDS011;23316;50.718;7.328;2022-12-11T12:34:13;34.57;;;17.20;;
37455;SDS011;23316;50.718;7.328;2022-12-11T12:36:48;26.80;;;13.77;;
37455;SDS011;23316;50.718;7.328;2022-12-11T12:39:24;20.52;;;11.30;;
37455;SDS011;23316;50.718;7.328;2022-12-11T12:41:57;26.88;;;13.25;;
37455;SDS011;23316;50.718;7.328;2022-12-11T12:44:33;29.13;;;13.82;;
37455;SDS011;23316;50.718;7.328;2022-12-11T12:47:07;23.42;;;12.40;;
37455;SDS011;23316;50.718;7.328;2022-12-11T12:49:39;25.73;;;14.23;;
37455;SDS011;23316;50.718;7.328;2022-12-11T12:52:10;26.38;;;14.13;;
37455;SDS011;23316;50.718;7.328;2022-12-11T12:54:41;26.00;;;12.88;;
37455;SDS011;23316;50.718;7.328;2022-12-11T12:57:32;24.73;;;12.65;;
37455;SDS011;23316;50.718;7.328;2022-12-11T13:00:00;17.83;;;10.40;;
37455;SDS011;23316;50.718;7.328;2022-12-11T13:02:28;18.40;;;9.35;;
37455;SDS011;23316;50.718;7.328;2022-12-11T13:04:58;18.25;;;10.00;;
37455;SDS011;23316;50.718;7.328;2022-12-11T13:07:30;16.35;;;9.10;;
37455;SDS011;23316;50.718;7.328;2022-12-11T13:10:02;16.52;;;8.98;;
37455;SDS011;23316;50.718;7.328;2022-12-11T13:12:38;17.30;;;9.50;;
37455;SDS011;23316;50.718;7.328;2022-12-11T13:15:24;20.75;;;9.93;;
37455;SDS011;23316;50.718;7.328;2022-12-11T13:17:56;18.27;;;9.55;;
37455;SDS011;23316;50.718;7.328;2022-12-11T13:20:26;20.25;;;10.20;;
37455;SDS011;23316;50.718;7.328;2022-12-11T13:23:07;18.92;;;10.32;;
37455;SDS011;23316;50.718;7.328;2022-12-11T13:25:46;21.63;;;10.55;;
37455;SDS011;23316;50.718;7.328;2022-12-11T13:28:20;20.73;;;10.60;;
37455;SDS011;23316;50.718;7.328;2022-12-11T13:30:57;22.08;;;11.15;;
37455;SDS011;23316;50.718;7.328;2022-12-11T13:33:30;24.48;;;12.23;;
37455;SDS011;23316;50.718;7.328;2022-12-11T13:36:15;28.00;;;14.15;;
37455;SDS011;23316;50.718;7.328;2022-12-11T13:38:56;33.17;;;15.35;;
37455;SDS011;23316;50.718;7.328;2022-12-11T13:41:27;26.27;;;13.98;;
37455;SDS011;23316;50.718;7.328;2022-12-11T13:43:55;25.75;;;14.25;;
37455;SDS011;23316;50.718;7.328;2022-12-11T13:46:23;27.73;;;14.50;;
37455;SDS011;23316;50.718;7.328;2022-12-11T13:48:54;26.55;;;13.88;;
37455;SDS011;23316;50.718;7.328;2022-12-11T13:51:28;28.15;;;13.52;;
37455;SDS011;23316;50.718;7.328;2022-12-11T13:54:04;26.75;;;12.90;;
37455;SDS011;23316;50.718;7.328;2022-12-11T13:56:36;21.75;;;11.95;;
37455;SDS011;23316;50.718;7.328;2022-12-11T13:59:04;23.13;;;12.48;;
37455;SDS011;23316;50.718;7.328;2022-12-11T14:01:31;22.90;;;11.82;;
37455;SDS011;23316;50.718;7.328;2022-12-11T14:04:01;25.80;;;13.65;;
37455;SDS011;23316;50.718;7.328;2022-12-11T14:06:31;24.67;;;11.93;;
37455;SDS011;23316;50.718;7.328;2022-12-11T14:09:00;23.67;;;11.88;;
37455;SDS011;23316;50.718;7.328;2022-12-11T14:11:30;24.10;;;12.43;;
37455;SDS011;23316;50.718;7.328;2022-12-11T14:14:01;22.30;;;11.85;;
37455;SDS011;23316;50.718;7.328;2022-12-11T14:16:31;68.47;;;29.75;;
37455;SDS011;23316;50.718;7.328;2022-12-11T14:19:00;61.17;;;24.98;;
37455;SDS011;23316;50.718;7.328;2022-12-11T14:21:32;32.42;;;15.00;;
37455;SDS011;23316;50.718;7.328;2022-12-11T14:24:00;25.05;;;12.30;;
37455;SDS011;23316;50.718;7.328;2022-12-11T14:26:28;22.15;;;11.82;;
37455;SDS011;23316;50.718;7.328;2022-12-11T14:28:57;22.33;;;11.13;;
37455;SDS011;23316;50.718;7.328;2022-12-11T14:31:26;23.15;;;11.68;;
37455;SDS011;23316;50.718;7.328;2022-12-11T14:33:57;23.65;;;13.15;;
37455;SDS011;23316;50.718;7.328;2022-12-11T14:36:28;19.75;;;11.00;;
37455;SDS011;23316;50.718;7.328;2022-12-11T14:38:58;25.63;;;13.75;;
37455;SDS011;23316;50.718;7.328;2022-12-11T14:41:30;25.75;;;13.27;;
37455;SDS011;23316;50.718;7.328;2022-12-11T14:44:05;23.92;;;12.68;;